sensor_id;sensor_type;location;lat;lon;timestamp;pressure;altitude;pressure_sealevel;temperature;humidity
11223;BME280;5668;52.012;8.724;2023-05-19T00:01:54;101275.75;;;12.85;62.14
11223;BME280;5668;52.012;8.724;2023-05-19T00:04:22;101274.47;;;12.77;61.99
11223;BME280;5668;52.012;8.724;2023-05-19T00:06:50;101274.97;;;12.70;62.80
11223;BME280;5668;52.012;8.724;2023-05-19T00:09:17;101278.75;;;12.64;63.36
11223;BME280;5668;52.012;8.724;2023-05-19T00:11:45;101275.44;;;12.62;64.01
11223;BME280;5668;52.012;8.724;2023-05-19T00:14:13;101268.72;;;12.58;64.01
11223;BME280;5668;52.012;8.724;2023-05-19T00:16:40;101267.13;;;12.56;63.97
11223;BME280;5668;52.012;8.724;2023-05-19T00:19:09;101269.88;;;12.54;64.57
11223;BME280;5668;52.012;8.724;2023-05-19T00:21:36;101264.00;;;12.51;64.60
11223;BME280;5668;52.012;8.724;2023-05-19T00:24:06;101266.69;;;12.49;65.12
11223;BME280;5668;52.012;8.724;2023-05-19T00:26:33;101263.34;;;12.47;64.61
11223;BME280;5668;52.012;8.724;2023-05-19T00:29:00;101261.59;;;12.48;65.39
11223;BME280;5668;52.012;8.724;2023-05-19T00:31:28;101263.16;;;12.50;64.68
11223;BME280;5668;52.012;8.724;2023-05-19T00:33:56;101259.69;;;12.50;64.28
11223;BME280;5668;52.012;8.724;2023-05-19T00:36:25;101260.53;;;12.50;64.75
11223;BME280;5668;52.012;8.724;2023-05-19T00:38:52;101260.53;;;12.50;64.03
11223;BME280;5668;52.012;8.724;2023-05-19T00:41:19;101250.31;;;12.47;64.29
11223;BME280;5668;52.012;8.724;2023-05-19T00:43:47;101253.03;;;12.46;64.24
11223;BME280;5668;52.012;8.724;2023-05-19T00:46:15;101250.41;;;12.46;64.24
11223;BME280;5668;52.012;8.724;2023-05-19T00:48:42;101256.38;;;12.48;64.23
11223;BME280;5668;52.012;8.724;2023-05-19T00:51:11;101248.66;;;12.46;64.37
11223;BME280;5668;52.012;8.724;2023-05-19T00:53:43;101252.19;;;12.45;64.25
11223;BME280;5668;52.012;8.724;2023-05-19T00:56:14;101255.72;;;12.44;63.73
11223;BME280;5668;52.012;8.724;2023-05-19T00:58:43;101259.25;;;12.43;63.84
11223;BME280;5668;52.012;8.724;2023-05-19T01:01:10;101252.34;;;12.42;63.76
11223;BME280;5668;52.012;8.724;2023-05-19T01:03:39;101255.06;;;12.40;64.20
11223;BME280;5668;52.012;8.724;2023-05-19T01:06:07;101257.78;;;12.39;63.64
11223;BME280;5668;52.012;8.724;2023-05-19T01:08:36;101257.97;;;12.36;63.50
11223;BME280;5668;52.012;8.724;2023-05-19T01:11:05;101255.06;;;12.26;63.33
11223;BME280;5668;52.012;8.724;2023-05-19T01:13:34;101260.31;;;12.12;63.21
11223;BME280;5668;52.012;8.724;2023-05-19T01:16:06;101263.28;;;12.06;64.39
11223;BME280;5668;52.012;8.724;2023-05-19T01:18:46;101252.94;;;12.05;64.71
11223;BME280;5668;52.012;8.724;2023-05-19T01:24:59;101257.44;;;12.02;64.50
11223;BME280;5668;52.012;8.724;2023-05-19T01:28:02;101259.19;;;12.02;64.60
11223;BME280;5668;52.012;8.724;2023-05-19T01:30:39;101260.75;;;12.05;64.92
11223;BME280;5668;52.012;8.724;2023-05-19T01:33:09;101259.84;;;12.06;64.29
11223;BME280;5668;52.012;8.724;2023-05-19T01:35:37;101261.53;;;12.07;64.24
11223;BME280;5668;52.012;8.724;2023-05-19T01:38:08;101258.91;;;12.07;64.24
11223;BME280;5668;52.012;8.724;2023-05-19T01:40:37;101256.84;;;11.97;64.06
11223;BME280;5668;52.012;8.724;2023-05-19T01:43:07;101258.06;;;11.92;63.47
11223;BME280;5668;52.012;8.724;2023-05-19T01:45:35;101263.06;;;11.81;64.86
11223;BME280;5668;52.012;8.724;2023-05-19T01:48:05;101261.31;;;11.81;65.21
11223;BME280;5668;52.012;8.724;2023-05-19T01:50:33;101266.34;;;11.84;64.80
11223;BME280;5668;52.012;8.724;2023-05-19T01:53:00;101262.91;;;11.84;65.05
11223;BME280;5668;52.012;8.724;2023-05-19T01:55:28;101264.03;;;11.80;64.55
11223;BME280;5668;52.012;8.724;2023-05-19T01:58:01;101267.44;;;11.80;64.93
11223;BME280;5668;52.012;8.724;2023-05-19T02:00:41;101260.59;;;11.79;64.96
11223;BME280;5668;52.012;8.724;2023-05-19T02:03:25;101251.09;;;11.78;64.37
11223;BME280;5668;52.012;8.724;2023-05-19T02:06:01;101254.78;;;11.74;64.57
11223;BME280;5668;52.012;8.724;2023-05-19T02:08:32;101258.50;;;11.70;65.14
11223;BME280;5668;52.012;8.724;2023-05-19T02:11:03;101254.28;;;11.68;65.15
11223;BME280;5668;52.012;8.724;2023-05-19T02:13:36;101251.03;;;11.50;64.72
11223;BME280;5668;52.012;8.724;2023-05-19T02:16:05;101253.72;;;11.18;66.27
11223;BME280;5668;52.012;8.724;2023-05-19T02:18:34;101254.69;;;10.86;68.28
11223;BME280;5668;52.012;8.724;2023-05-19T02:21:01;101248.50;;;10.73;69.93
11223;BME280;5668;52.012;8.724;2023-05-19T02:23:29;101246.56;;;10.61;70.94
11223;BME280;5668;52.012;8.724;2023-05-19T02:25:56;101245.47;;;10.65;71.37
11223;BME280;5668;52.012;8.724;2023-05-19T02:28:24;101246.31;;;10.81;70.47
11223;BME280;5668;52.012;8.724;2023-05-19T02:30:53;101244.69;;;10.94;69.31
11223;BME280;5668;52.012;8.724;2023-05-19T02:33:20;101238.56;;;10.95;69.85
11223;BME280;5668;52.012;8.724;2023-05-19T02:35:50;101237.47;;;10.99;69.65
11223;BME280;5668;52.012;8.724;2023-05-19T02:38:18;101238.78;;;11.06;69.15
11223;BME280;5668;52.012;8.724;2023-05-19T02:40:46;101234.19;;;11.11;68.40
11223;BME280;5668;52.012;8.724;2023-05-19T02:43:13;101230.66;;;11.12;67.96
11223;BME280;5668;52.012;8.724;2023-05-19T02:45:40;101229.16;;;11.08;67.68
11223;BME280;5668;52.012;8.724;2023-05-19T02:48:07;101243.06;;;11.07;68.05
11223;BME280;5668;52.012;8.724;2023-05-19T02:50:35;101234.25;;;11.10;68.19
11223;BME280;5668;52.012;8.724;2023-05-19T02:53:03;101235.66;;;11.15;68.36
11223;BME280;5668;52.012;8.724;2023-05-19T02:55:30;101227.69;;;11.18;68.14
11223;BME280;5668;52.012;8.724;2023-05-19T02:57:58;101231.97;;;11.19;67.88
11223;BME280;5668;52.012;8.724;2023-05-19T03:02:54;101237.84;;;11.23;67.58
11223;BME280;5668;52.012;8.724;2023-05-19T03:05:21;101231.78;;;11.22;67.34
11223;BME280;5668;52.012;8.724;2023-05-19T03:07:49;101234.22;;;11.25;67.04
11223;BME280;5668;52.012;8.724;2023-05-19T03:10:18;101233.47;;;11.23;67.27
11223;BME280;5668;52.012;8.724;2023-05-19T03:12:45;101235.16;;;11.24;67.25
11223;BME280;5668;52.012;8.724;2023-05-19T03:15:13;101227.44;;;11.23;67.11
11223;BME280;5668;52.012;8.724;2023-05-19T03:17:41;101236.16;;;11.22;67.31
11223;BME280;5668;52.012;8.724;2023-05-19T03:20:09;101236.16;;;11.22;67.09
11223;BME280;5668;52.012;8.724;2023-05-19T03:22:37;101235.31;;;11.21;67.12
11223;BME280;5668;52.012;8.724;2023-05-19T03:25:04;101233.63;;;11.20;67.20
11223;BME280;5668;52.012;8.724;2023-05-19T03:27:33;101238.03;;;11.20;67.32
11223;BME280;5668;52.012;8.724;2023-05-19T03:30:00;101241.56;;;11.19;67.21
11223;BME280;5668;52.012;8.724;2023-05-19T03:32:27;101235.50;;;11.18;67.24
11223;BME280;5668;52.012;8.724;2023-05-19T03:34:54;101239.03;;;11.17;67.23
11223;BME280;5668;52.012;8.724;2023-05-19T03:37:22;101232.16;;;11.16;67.20
11223;BME280;5668;52.012;8.724;2023-05-19T03:39:49;101233.06;;;11.15;67.23
11223;BME280;5668;52.012;8.724;2023-05-19T03:42:16;101239.19;;;11.14;67.43
11223;BME280;5668;52.012;8.724;2023-05-19T03:44:45;101246.28;;;11.12;67.17
11223;BME280;5668;52.012;8.724;2023-05-19T03:47:12;101248.94;;;11.11;67.35
11223;BME280;5668;52.012;8.724;2023-05-19T03:49:39;101240.38;;;11.09;67.52
11223;BME280;5668;52.012;8.724;2023-05-19T03:52:06;101244.84;;;11.07;67.71
11223;BME280;5668;52.012;8.724;2023-05-19T03:54:34;101241.38;;;11.06;67.61
11223;BME280;5668;52.012;8.724;2023-05-19T03:57:04;101238.91;;;11.05;67.58
11223;BME280;5668;52.012;8.724;2023-05-19T03:59:31;101234.50;;;11.05;67.30
11223;BME280;5668;52.012;8.724;2023-05-19T04:02:01;101236.38;;;11.03;67.42
11223;BME280;5668;52.012;8.724;2023-05-19T04:04:28;101245.09;;;11.02;67.51
11223;BME280;5668;52.012;8.724;2023-05-19T04:06:56;101248.78;;;10.98;67.55
11223;BME280;5668;52.012;8.724;2023-05-19T04:09:23;101254.00;;;10.98;67.42
11223;BME280;5668;52.012;8.724;2023-05-19T04:11:50;101252.22;;;10.99;67.55
11223;BME280;5668;52.012;8.724;2023-05-19T04:14:17;101251.38;;;10.98;67.86
11223;BME280;5668;52.012;8.724;2023-05-19T04:16:45;101251.31;;;11.00;67.70
11223;BME280;5668;52.012;8.724;2023-05-19T04:19:14;101253.91;;;11.00;67.57
11223;BME280;5668;52.012;8.724;2023-05-19T04:21:41;101259.94;;;11.00;67.77
11223;BME280;5668;52.012;8.724;2023-05-19T04:24:08;101265.06;;;11.02;67.62
11223;BME280;5668;52.012;8.724;2023-05-19T04:26:35;101264.31;;;11.00;68.05
11223;BME280;5668;52.012;8.724;2023-05-19T04:29:03;101269.50;;;11.00;68.40
11223;BME280;5668;52.012;8.724;2023-05-19T04:31:30;101269.44;;;11.01;68.61
11223;BME280;5668;52.012;8.724;2023-05-19T04:33:59;101272.88;;;11.02;68.68
11223;BME280;5668;52.012;8.724;2023-05-19T04:36:28;101260.88;;;10.99;69.43
11223;BME280;5668;52.012;8.724;2023-05-19T04:38:56;101268.75;;;10.98;70.11
11223;BME280;5668;52.012;8.724;2023-05-19T04:41:27;101266.25;;;10.96;70.25
11223;BME280;5668;52.012;8.724;2023-05-19T04:43:54;101260.88;;;10.99;70.51
11223;BME280;5668;52.012;8.724;2023-05-19T04:46:22;101254.00;;;10.98;70.43
11223;BME280;5668;52.012;8.724;2023-05-19T04:48:51;101259.94;;;11.00;71.23
11223;BME280;5668;52.012;8.724;2023-05-19T04:51:20;101261.63;;;11.01;71.37
11223;BME280;5668;52.012;8.724;2023-05-19T04:53:48;101260.72;;;11.02;71.48
11223;BME280;5668;52.012;8.724;2023-05-19T04:56:16;101257.91;;;11.05;71.58
11223;BME280;5668;52.012;8.724;2023-05-19T04:58:43;101257.91;;;11.05;71.59
11223;BME280;5668;52.012;8.724;2023-05-19T05:01:10;101259.59;;;11.06;71.68
11223;BME280;5668;52.012;8.724;2023-05-19T05:03:40;101258.69;;;11.07;71.55
11223;BME280;5668;52.012;8.724;2023-05-19T05:06:08;101253.31;;;11.10;71.34
11223;BME280;5668;52.012;8.724;2023-05-19T05:08:36;101255.00;;;11.11;71.31
11223;BME280;5668;52.012;8.724;2023-05-19T05:11:07;101252.28;;;11.13;71.46
11223;BME280;5668;52.012;8.724;2023-05-19T05:13:35;101254.81;;;11.14;71.60
11223;BME280;5668;52.012;8.724;2023-05-19T05:16:03;101249.59;;;11.14;72.21
11223;BME280;5668;52.012;8.724;2023-05-19T05:18:32;101252.03;;;11.17;72.58
11223;BME280;5668;52.012;8.724;2023-05-19T05:20:59;101251.03;;;11.20;73.25
11223;BME280;5668;52.012;8.724;2023-05-19T05:23:27;101249.06;;;11.23;73.71
11223;BME280;5668;52.012;8.724;2023-05-19T05:25:55;101247.22;;;11.25;74.02
11223;BME280;5668;52.012;8.724;2023-05-19T05:28:23;101241.00;;;11.28;74.01
11223;BME280;5668;52.012;8.724;2023-05-19T05:30:51;101252.09;;;11.32;74.37
11223;BME280;5668;52.012;8.724;2023-05-19T05:33:18;101247.44;;;11.37;74.68
11223;BME280;5668;52.012;8.724;2023-05-19T05:35:47;101248.19;;;11.39;74.55
11223;BME280;5668;52.012;8.724;2023-05-19T05:38:15;101249.59;;;11.44;74.81
11223;BME280;5668;52.012;8.724;2023-05-19T05:40:42;101247.47;;;11.51;74.63
11223;BME280;5668;52.012;8.724;2023-05-19T05:43:09;101252.50;;;11.54;74.31
11223;BME280;5668;52.012;8.724;2023-05-19T05:45:38;101248.78;;;11.58;74.16
11223;BME280;5668;52.012;8.724;2023-05-19T05:48:06;101246.00;;;11.61;74.18
11223;BME280;5668;52.012;8.724;2023-05-19T05:50:34;101245.72;;;11.65;74.47
11223;BME280;5668;52.012;8.724;2023-05-19T05:53:01;101245.47;;;11.70;74.33
11223;BME280;5668;52.012;8.724;2023-05-19T05:55:30;101243.50;;;11.74;74.29
11223;BME280;5668;52.012;8.724;2023-05-19T05:57:57;101248.41;;;11.80;74.41
11223;BME280;5668;52.012;8.724;2023-05-19T06:00:27;101248.88;;;11.86;74.24
11223;BME280;5668;52.012;8.724;2023-05-19T06:02:56;101240.84;;;11.89;74.27
11223;BME280;5668;52.012;8.724;2023-05-19T06:05:23;101248.19;;;11.97;74.32
11223;BME280;5668;52.012;8.724;2023-05-19T06:07:51;101249.63;;;12.02;74.05
11223;BME280;5668;52.012;8.724;2023-05-19T06:10:19;101251.09;;;12.07;73.86
11223;BME280;5668;52.012;8.724;2023-05-19T06:12:47;101244.66;;;12.12;74.17
11223;BME280;5668;52.012;8.724;2023-05-19T06:15:14;101243.28;;;12.21;73.21
11223;BME280;5668;52.012;8.724;2023-05-19T06:17:41;101248.09;;;12.27;73.58
11223;BME280;5668;52.012;8.724;2023-05-19T06:20:12;101249.38;;;12.34;73.08
11223;BME280;5668;52.012;8.724;2023-05-19T06:22:39;101247.34;;;12.39;72.93
11223;BME280;5668;52.012;8.724;2023-05-19T06:25:07;101245.09;;;12.47;73.12
11223;BME280;5668;52.012;8.724;2023-05-19T06:27:35;101239.41;;;12.55;73.11
11223;BME280;5668;52.012;8.724;2023-05-19T06:30:02;101238.81;;;12.64;73.38
11223;BME280;5668;52.012;8.724;2023-05-19T06:32:29;101238.31;;;12.71;72.53
11223;BME280;5668;52.012;8.724;2023-05-19T06:34:57;101246.50;;;12.79;72.77
11223;BME280;5668;52.012;8.724;2023-05-19T06:37:25;101247.78;;;12.87;73.96
11223;BME280;5668;52.012;8.724;2023-05-19T06:39:53;101245.00;;;13.02;73.12
11223;BME280;5668;52.012;8.724;2023-05-19T06:42:20;101244.34;;;13.13;72.84
11223;BME280;5668;52.012;8.724;2023-05-19T06:44:49;101241.03;;;13.24;72.33
11223;BME280;5668;52.012;8.724;2023-05-19T06:47:16;101249.84;;;13.35;71.53
11223;BME280;5668;52.012;8.724;2023-05-19T06:49:44;101249.44;;;13.41;70.89
11223;BME280;5668;52.012;8.724;2023-05-19T06:52:11;101247.22;;;13.48;70.76
11223;BME280;5668;52.012;8.724;2023-05-19T06:54:40;101241.59;;;13.54;71.16
11223;BME280;5668;52.012;8.724;2023-05-19T06:57:07;101239.00;;;13.67;70.04
11223;BME280;5668;52.012;8.724;2023-05-19T06:59:34;101241.19;;;13.73;70.22
11223;BME280;5668;52.012;8.724;2023-05-19T07:02:05;101240.03;;;13.77;69.37
11223;BME280;5668;52.012;8.724;2023-05-19T07:04:33;101234.41;;;13.83;69.34
11223;BME280;5668;52.012;8.724;2023-05-19T07:07:00;101228.34;;;13.95;69.49
11223;BME280;5668;52.012;8.724;2023-05-19T07:09:27;101226.75;;;14.05;69.10
11223;BME280;5668;52.012;8.724;2023-05-19T07:11:56;101238.97;;;14.17;68.72
11223;BME280;5668;52.012;8.724;2023-05-19T07:14:23;101230.25;;;14.29;68.63
11223;BME280;5668;52.012;8.724;2023-05-19T07:16:51;101226.09;;;14.40;68.28
11223;BME280;5668;52.012;8.724;2023-05-19T07:19:18;101227.53;;;14.44;67.61
11223;BME280;5668;52.012;8.724;2023-05-19T07:21:45;101222.38;;;14.55;66.77
11223;BME280;5668;52.012;8.724;2023-05-19T07:24:13;101214.53;;;14.55;64.78
11223;BME280;5668;52.012;8.724;2023-05-19T07:26:40;101217.63;;;14.60;65.25
11223;BME280;5668;52.012;8.724;2023-05-19T07:29:09;101211.84;;;14.67;65.52
11223;BME280;5668;52.012;8.724;2023-05-19T07:31:36;101212.97;;;14.76;65.29
11223;BME280;5668;52.012;8.724;2023-05-19T07:34:03;101217.53;;;14.85;64.82
11223;BME280;5668;52.012;8.724;2023-05-19T07:36:30;101213.41;;;14.94;64.56
11223;BME280;5668;52.012;8.724;2023-05-19T07:38:59;101209.16;;;15.04;63.82
11223;BME280;5668;52.012;8.724;2023-05-19T07:41:26;101215.00;;;15.07;63.65
11223;BME280;5668;52.012;8.724;2023-05-19T07:43:53;101206.38;;;15.18;63.99
11223;BME280;5668;52.012;8.724;2023-05-19T07:46:22;101207.22;;;15.30;63.87
11223;BME280;5668;52.012;8.724;2023-05-19T07:48:49;101205.34;;;15.43;63.44
11223;BME280;5668;52.012;8.724;2023-05-19T07:51:16;101204.66;;;15.52;62.99
11223;BME280;5668;52.012;8.724;2023-05-19T07:53:44;101205.88;;;15.59;62.47
11223;BME280;5668;52.012;8.724;2023-05-19T07:56:12;101199.69;;;15.71;61.80
11223;BME280;5668;52.012;8.724;2023-05-19T07:58:39;101195.66;;;15.78;60.84
11223;BME280;5668;52.012;8.724;2023-05-19T08:01:06;101203.50;;;15.90;61.14
11223;BME280;5668;52.012;8.724;2023-05-19T08:03:35;101193.72;;;16.03;61.41
11223;BME280;5668;52.012;8.724;2023-05-19T08:06:02;101199.69;;;16.16;61.50
11223;BME280;5668;52.012;8.724;2023-05-19T08:08:29;101207.66;;;16.25;60.92
11223;BME280;5668;52.012;8.724;2023-05-19T08:11:01;101199.06;;;16.35;59.40
11223;BME280;5668;52.012;8.724;2023-05-19T08:13:29;101203.47;;;16.45;59.00
11223;BME280;5668;52.012;8.724;2023-05-19T08:15:56;101202.59;;;16.56;58.06
11223;BME280;5668;52.012;8.724;2023-05-19T08:18:24;101196.50;;;16.67;57.92
11223;BME280;5668;52.012;8.724;2023-05-19T08:20:53;101193.25;;;16.74;57.26
11223;BME280;5668;52.012;8.724;2023-05-19T08:23:21;101199.28;;;16.86;57.65
11223;BME280;5668;52.012;8.724;2023-05-19T08:25:48;101194.13;;;16.95;57.77
11223;BME280;5668;52.012;8.724;2023-05-19T08:28:15;101182.28;;;17.01;56.49
11223;BME280;5668;52.012;8.724;2023-05-19T08:30:43;101187.00;;;17.07;57.20
11223;BME280;5668;52.012;8.724;2023-05-19T08:33:10;101183.38;;;17.19;56.84
11223;BME280;5668;52.012;8.724;2023-05-19T08:35:37;101180.69;;;17.30;56.46
11223;BME280;5668;52.012;8.724;2023-05-19T08:38:05;101181.19;;;17.45;56.63
11223;BME280;5668;52.012;8.724;2023-05-19T08:40:33;101168.09;;;17.55;56.03
11223;BME280;5668;52.012;8.724;2023-05-19T08:43:03;101164.44;;;17.67;55.78
11223;BME280;5668;52.012;8.724;2023-05-19T08:45:30;101156.47;;;17.78;56.35
11223;BME280;5668;52.012;8.724;2023-05-19T08:47:59;101150.13;;;17.90;56.10
11223;BME280;5668;52.012;8.724;2023-05-19T08:50:29;101152.69;;;18.01;55.68
11223;BME280;5668;52.012;8.724;2023-05-19T08:53:03;101151.88;;;18.10;53.18
11223;BME280;5668;52.012;8.724;2023-05-19T08:55:40;101152.72;;;18.21;50.99
11223;BME280;5668;52.012;8.724;2023-05-19T08:58:11;101151.91;;;18.30;51.30
11223;BME280;5668;52.012;8.724;2023-05-19T09:00:39;101143.91;;;18.41;51.34
11223;BME280;5668;52.012;8.724;2023-05-19T09:03:06;101140.00;;;18.45;51.27
11223;BME280;5668;52.012;8.724;2023-05-19T09:05:34;101138.78;;;18.49;48.16
11223;BME280;5668;52.012;8.724;2023-05-19T09:08:02;101148.31;;;18.50;46.58
11223;BME280;5668;52.012;8.724;2023-05-19T09:10:30;101142.91;;;18.51;44.49
11223;BME280;5668;52.012;8.724;2023-05-19T09:12:59;101143.50;;;18.55;44.51
11223;BME280;5668;52.012;8.724;2023-05-19T09:15:27;101129.22;;;18.58;44.28
11223;BME280;5668;52.012;8.724;2023-05-19T09:18:05;101133.13;;;18.63;44.29
11223;BME280;5668;52.012;8.724;2023-05-19T09:20:36;101131.47;;;18.62;43.85
11223;BME280;5668;52.012;8.724;2023-05-19T09:23:04;101122.88;;;18.60;42.50
11223;BME280;5668;52.012;8.724;2023-05-19T09:25:32;101120.38;;;18.68;43.29
11223;BME280;5668;52.012;8.724;2023-05-19T09:28:01;101120.09;;;18.71;41.56
11223;BME280;5668;52.012;8.724;2023-05-19T09:30:28;101122.31;;;18.76;42.51
11223;BME280;5668;52.012;8.724;2023-05-19T09:32:55;101118.97;;;18.83;42.46
11223;BME280;5668;52.012;8.724;2023-05-19T09:35:23;101126.44;;;18.88;42.62
11223;BME280;5668;52.012;8.724;2023-05-19T09:37:50;101114.94;;;18.99;42.39
11223;BME280;5668;52.012;8.724;2023-05-19T09:40:19;101117.00;;;19.05;42.08
11223;BME280;5668;52.012;8.724;2023-05-19T09:42:47;101116.84;;;19.16;42.31
11223;BME280;5668;52.012;8.724;2023-05-19T09:45:15;101114.97;;;19.26;42.13
11223;BME280;5668;52.012;8.724;2023-05-19T09:47:43;101117.59;;;19.36;41.84
11223;BME280;5668;52.012;8.724;2023-05-19T09:50:12;101111.34;;;19.37;39.49
11223;BME280;5668;52.012;8.724;2023-05-19T09:52:43;101116.06;;;19.43;39.96
11223;BME280;5668;52.012;8.724;2023-05-19T09:55:11;101109.63;;;19.55;40.64
11223;BME280;5668;52.012;8.724;2023-05-19T09:57:39;101115.84;;;19.63;40.80
11223;BME280;5668;52.012;8.724;2023-05-19T10:00:08;101102.09;;;19.69;40.42
11223;BME280;5668;52.012;8.724;2023-05-19T10:02:41;101105.94;;;19.75;39.94
11223;BME280;5668;52.012;8.724;2023-05-19T10:05:11;101108.44;;;19.77;39.28
11223;BME280;5668;52.012;8.724;2023-05-19T10:07:42;101101.75;;;19.82;38.70
11223;BME280;5668;52.012;8.724;2023-05-19T10:10:13;101093.28;;;19.79;37.53
11223;BME280;5668;52.012;8.724;2023-05-19T10:12:41;101107.41;;;19.87;39.25
11223;BME280;5668;52.012;8.724;2023-05-19T10:15:10;101105.41;;;19.99;39.86
11223;BME280;5668;52.012;8.724;2023-05-19T10:17:40;101101.84;;;20.08;40.01
11223;BME280;5668;52.012;8.724;2023-05-19T10:20:12;101099.16;;;20.18;39.32
11223;BME280;5668;52.012;8.724;2023-05-19T10:22:41;101089.50;;;20.26;39.97
11223;BME280;5668;52.012;8.724;2023-05-19T10:25:09;101090.84;;;20.30;39.82
11223;BME280;5668;52.012;8.724;2023-05-19T10:27:42;101088.31;;;20.38;39.82
11223;BME280;5668;52.012;8.724;2023-05-19T10:30:13;101077.19;;;20.44;38.74
11223;BME280;5668;52.012;8.724;2023-05-19T10:32:43;101074.28;;;20.56;39.16
11223;BME280;5668;52.012;8.724;2023-05-19T10:35:36;101071.09;;;20.70;39.97
11223;BME280;5668;52.012;8.724;2023-05-19T10:38:15;101070.16;;;20.79;39.66
11223;BME280;5668;52.012;8.724;2023-05-19T10:40:56;101071.22;;;20.86;39.27
11223;BME280;5668;52.012;8.724;2023-05-19T10:43:34;101068.91;;;20.91;38.40
11223;BME280;5668;52.012;8.724;2023-05-19T10:46:04;101074.59;;;20.96;38.76
11223;BME280;5668;52.012;8.724;2023-05-19T10:48:34;101070.28;;;20.95;38.29
11223;BME280;5668;52.012;8.724;2023-05-19T10:51:02;101066.59;;;20.88;37.26
11223;BME280;5668;52.012;8.724;2023-05-19T10:53:31;101078.47;;;20.84;36.73
11223;BME280;5668;52.012;8.724;2023-05-19T10:56:01;101072.47;;;20.56;34.85
11223;BME280;5668;52.012;8.724;2023-05-19T10:58:37;101067.34;;;20.55;36.05
11223;BME280;5668;52.012;8.724;2023-05-19T11:01:07;101069.91;;;20.46;36.35
11223;BME280;5668;52.012;8.724;2023-05-19T11:03:46;101077.19;;;20.44;36.50
11223;BME280;5668;52.012;8.724;2023-05-19T11:06:25;101071.91;;;20.44;36.31
11223;BME280;5668;52.012;8.724;2023-05-19T11:08:57;101065.94;;;20.42;36.95
11223;BME280;5668;52.012;8.724;2023-05-19T11:11:26;101069.25;;;20.44;37.21
11223;BME280;5668;52.012;8.724;2023-05-19T11:14:10;101068.31;;;20.54;37.20
11223;BME280;5668;52.012;8.724;2023-05-19T11:16:39;101066.00;;;20.51;36.19
11223;BME280;5668;52.012;8.724;2023-05-19T11:19:24;101071.03;;;20.62;37.13
11223;BME280;5668;52.012;8.724;2023-05-19T11:21:51;101068.38;;;20.62;36.84
11223;BME280;5668;52.012;8.724;2023-05-19T11:24:34;101062.47;;;20.68;38.05
11223;BME280;5668;52.012;8.724;2023-05-19T11:27:17;101065.81;;;20.70;38.31
11223;BME280;5668;52.012;8.724;2023-05-19T11:29:45;101057.19;;;20.68;38.53
11223;BME280;5668;52.012;8.724;2023-05-19T11:32:13;101065.38;;;20.57;38.20
11223;BME280;5668;52.012;8.724;2023-05-19T11:34:43;101061.69;;;20.50;38.62
11223;BME280;5668;52.012;8.724;2023-05-19T11:37:11;101059.81;;;20.60;38.97
11223;BME280;5668;52.012;8.724;2023-05-19T11:39:39;101061.69;;;20.67;38.07
11223;BME280;5668;52.012;8.724;2023-05-19T11:42:08;101057.59;;;20.73;37.66
11223;BME280;5668;52.012;8.724;2023-05-19T11:44:35;101046.44;;;20.87;38.32
11223;BME280;5668;52.012;8.724;2023-05-19T11:47:04;101048.81;;;20.98;38.17
11223;BME280;5668;52.012;8.724;2023-05-19T11:49:31;101050.81;;;20.96;37.48
11223;BME280;5668;52.012;8.724;2023-05-19T11:52:01;101047.44;;;20.86;37.71
11223;BME280;5668;52.012;8.724;2023-05-19T11:54:32;101046.44;;;20.87;38.72
11223;BME280;5668;52.012;8.724;2023-05-19T11:57:02;101050.28;;;20.93;38.81
11223;BME280;5668;52.012;8.724;2023-05-19T11:59:30;101049.97;;;20.96;39.28
11223;BME280;5668;52.012;8.724;2023-05-19T12:02:00;101047.19;;;20.97;38.12
11223;BME280;5668;52.012;8.724;2023-05-19T12:04:29;101045.19;;;20.99;37.95
11223;BME280;5668;52.012;8.724;2023-05-19T12:06:57;101048.94;;;20.89;38.41
11223;BME280;5668;52.012;8.724;2023-05-19T12:09:27;101049.81;;;20.97;38.86
11223;BME280;5668;52.012;8.724;2023-05-19T12:11:55;101046.56;;;21.03;38.71
11223;BME280;5668;52.012;8.724;2023-05-19T12:14:24;101038.81;;;21.10;38.88
11223;BME280;5668;52.012;8.724;2023-05-19T12:16:51;101046.34;;;21.22;39.21
11223;BME280;5668;52.012;8.724;2023-05-19T12:19:22;101037.13;;;21.27;36.85
11223;BME280;5668;52.012;8.724;2023-05-19T12:21:50;101044.06;;;21.36;37.10
11223;BME280;5668;52.012;8.724;2023-05-19T12:24:18;101033.22;;;21.47;37.68
11223;BME280;5668;52.012;8.724;2023-05-19T12:26:46;101026.16;;;21.55;37.23
11223;BME280;5668;52.012;8.724;2023-05-19T12:29:15;101030.16;;;21.68;37.74
11223;BME280;5668;52.012;8.724;2023-05-19T12:31:45;101022.22;;;21.76;38.40
11223;BME280;5668;52.012;8.724;2023-05-19T12:34:14;101021.56;;;21.82;38.34
11223;BME280;5668;52.012;8.724;2023-05-19T12:36:41;101029.88;;;21.87;38.83
11223;BME280;5668;52.012;8.724;2023-05-19T12:39:08;101023.41;;;21.89;37.06
11223;BME280;5668;52.012;8.724;2023-05-19T12:41:36;101024.75;;;21.93;37.43
11223;BME280;5668;52.012;8.724;2023-05-19T12:44:14;101027.72;;;21.90;36.49
11223;BME280;5668;52.012;8.724;2023-05-19T12:46:43;101030.00;;;21.77;35.87
11223;BME280;5668;52.012;8.724;2023-05-19T12:49:10;101025.22;;;21.81;36.34
11223;BME280;5668;52.012;8.724;2023-05-19T12:51:37;101016.94;;;21.84;35.96
11223;BME280;5668;52.012;8.724;2023-05-19T12:54:05;101018.13;;;21.89;36.08
11223;BME280;5668;52.012;8.724;2023-05-19T12:56:32;101008.50;;;21.80;36.39
11223;BME280;5668;52.012;8.724;2023-05-19T12:59:00;101021.22;;;21.69;36.06
11223;BME280;5668;52.012;8.724;2023-05-19T13:01:31;101025.78;;;21.42;36.26
11223;BME280;5668;52.012;8.724;2023-05-19T13:04:02;101014.38;;;21.42;36.75
11223;BME280;5668;52.012;8.724;2023-05-19T13:06:29;101007.44;;;21.49;38.01
11223;BME280;5668;52.012;8.724;2023-05-19T13:08:57;101004.31;;;21.53;37.36
11223;BME280;5668;52.012;8.724;2023-05-19T13:11:25;101006.28;;;21.51;36.43
11223;BME280;5668;52.012;8.724;2023-05-19T13:13:52;101005.94;;;21.46;35.62
11223;BME280;5668;52.012;8.724;2023-05-19T13:16:19;101002.50;;;21.54;36.53